createdAt,value
2023-05-09T00:02:01.430Z,20.20
2023-05-09T00:04:29.462Z,20.12
2023-05-09T00:06:56.077Z,20.11
2023-05-09T00:09:22.806Z,20.17
2023-05-09T00:11:52.550Z,20.22
2023-05-09T00:14:21.258Z,20.21
2023-05-09T00:16:49.527Z,20.22
2023-05-09T00:19:16.354Z,20.31
2023-05-09T00:21:44.431Z,20.25
2023-05-09T00:24:11.115Z,20.24
2023-05-09T00:26:37.690Z,20.24
2023-05-09T00:29:04.375Z,20.27
2023-05-09T00:31:34.205Z,20.19
2023-05-09T00:34:14.248Z,19.81
2023-05-09T00:36:49.653Z,19.93
2023-05-09T00:39:16.315Z,19.82
2023-05-09T00:41:42.939Z,19.75
2023-05-09T00:44:09.560Z,19.77
2023-05-09T00:46:36.322Z,19.80
2023-05-09T00:49:10.652Z,19.80
2023-05-09T00:51:41.477Z,19.82
2023-05-09T00:54:12.222Z,19.84
2023-05-09T00:56:39.474Z,19.35
2023-05-09T00:59:06.706Z,19.87
2023-05-09T01:01:33.388Z,19.88
2023-05-09T01:04:00.501Z,19.87
2023-05-09T01:06:59.858Z,19.84
2023-05-09T01:09:31.779Z,19.80
2023-05-09T01:12:16.185Z,19.75
2023-05-09T01:14:57.839Z,19.64
2023-05-09T01:17:36.149Z,19.62
2023-05-09T01:20:12.101Z,19.60
2023-05-09T01:22:44.330Z,19.65
2023-05-09T01:25:29.427Z,19.66
2023-05-09T01:28:10.867Z,19.63
2023-05-09T01:30:43.406Z,19.60
2023-05-09T01:33:12.317Z,19.68
2023-05-09T01:35:41.043Z,19.76
2023-05-09T01:38:10.637Z,19.42
2023-05-09T01:40:38.797Z,19.29
2023-05-09T01:43:10.775Z,19.19
2023-05-09T01:45:49.623Z,19.10
2023-05-09T01:48:19.882Z,19.41
2023-05-09T01:50:47.545Z,19.36
2023-05-09T01:53:14.678Z,19.39
2023-05-09T01:55:46.367Z,19.45
2023-05-09T01:58:16.854Z,19.39
2023-05-09T02:00:43.951Z,19.31
2023-05-09T02:03:11.275Z,19.29
2023-05-09T02:05:38.697Z,19.19
2023-05-09T02:08:05.636Z,19.12
2023-05-09T02:10:32.918Z,19.07
2023-05-09T02:12:59.645Z,19.03
2023-05-09T02:15:26.371Z,19.04
2023-05-09T02:17:59.898Z,18.82
2023-05-09T02:20:27.096Z,19.01
2023-05-09T02:22:53.817Z,19.05
2023-05-09T02:25:26.268Z,18.73
2023-05-09T02:27:53.650Z,19.05
2023-05-09T02:30:25.487Z,18.94
2023-05-09T02:32:57.008Z,18.56
2023-05-09T02:35:32.276Z,18.53
2023-05-09T02:37:59.344Z,18.91
2023-05-09T02:40:26.728Z,18.94
2023-05-09T02:42:53.435Z,18.92
2023-05-09T02:45:20.050Z,18.89
2023-05-09T02:47:51.169Z,18.83
2023-05-09T02:50:18.295Z,18.79
2023-05-09T02:52:45.300Z,18.82
2023-05-09T02:55:12.115Z,18.80
2023-05-09T02:57:38.799Z,18.80
2023-05-09T03:00:09.720Z,18.79
2023-05-09T03:02:36.768Z,18.74
2023-05-09T03:05:05.031Z,18.75
2023-05-09T03:07:31.628Z,18.75
2023-05-09T03:09:58.244Z,18.32
2023-05-09T03:12:24.804Z,18.69
2023-05-09T03:14:51.371Z,18.71
2023-05-09T03:17:21.564Z,18.70
2023-05-09T03:19:50.130Z,18.38
2023-05-09T03:22:16.726Z,18.63
2023-05-09T03:24:44.630Z,18.21
2023-05-09T03:27:11.577Z,18.57
2023-05-09T03:29:38.123Z,18.62
2023-05-09T03:32:05.083Z,18.74
2023-05-09T03:34:38.038Z,18.82
2023-05-09T03:37:07.862Z,18.49
2023-05-09T03:39:34.622Z,18.90
2023-05-09T03:42:01.722Z,18.91
2023-05-09T03:44:31.953Z,18.92
2023-05-09T03:47:13.102Z,19.03
2023-05-09T03:49:43.374Z,18.98
2023-05-09T03:52:11.605Z,18.91
2023-05-09T03:54:46.737Z,19.02
2023-05-09T03:57:19.048Z,18.98
2023-05-09T03:59:45.725Z,18.94
2023-05-09T04:02:24.009Z,18.87
2023-05-09T04:05:07.144Z,18.87
2023-05-09T04:07:38.385Z,18.79
2023-05-09T04:10:05.113Z,18.75
2023-05-09T04:12:40.312Z,18.33
2023-05-09T04:15:07.408Z,18.61
2023-05-09T04:17:34.043Z,18.60
2023-05-09T04:20:03.612Z,18.50
2023-05-09T04:22:32.546Z,18.61
2023-05-09T04:24:59.605Z,18.64
2023-05-09T04:27:28.320Z,18.73
2023-05-09T04:29:55.271Z,18.68
2023-05-09T04:32:30.342Z,18.99
2023-05-09T04:34:58.740Z,19.05
2023-05-09T04:37:26.271Z,18.92
2023-05-09T04:39:53.218Z,18.88
2023-05-09T04:42:19.752Z,18.78
2023-05-09T04:44:59.628Z,18.74
2023-05-09T04:47:26.374Z,18.62
2023-05-09T04:49:53.232Z,18.58
2023-05-09T04:52:20.034Z,18.55
2023-05-09T04:54:48.805Z,18.49
2023-05-09T04:57:18.295Z,18.40
2023-05-09T04:59:45.916Z,18.29
2023-05-09T05:02:13.327Z,18.22
2023-05-09T05:04:40.126Z,18.22
2023-05-09T05:07:09.074Z,18.23
2023-05-09T05:09:35.750Z,18.12
2023-05-09T05:12:04.152Z,18.08
2023-05-09T05:14:32.252Z,18.10
2023-05-09T05:17:03.607Z,18.07
2023-05-09T05:19:30.880Z,18.08
2023-05-09T05:21:58.348Z,18.07
2023-05-09T05:24:25.214Z,17.99
2023-05-09T05:26:51.795Z,17.96
2023-05-09T05:29:23.330Z,17.57
2023-05-09T05:31:50.242Z,17.89
2023-05-09T05:34:16.936Z,17.95
2023-05-09T05:36:43.586Z,18.01
2023-05-09T05:39:10.126Z,17.94
2023-05-09T05:41:36.724Z,17.96
2023-05-09T05:44:03.412Z,18.01
2023-05-09T05:46:35.692Z,18.09
2023-05-09T05:49:05.051Z,18.09
2023-05-09T05:51:32.464Z,18.01
2023-05-09T05:53:59.030Z,18.01
2023-05-09T05:56:26.215Z,17.96
2023-05-09T05:58:55.824Z,17.26
2023-05-09T06:01:22.471Z,17.99
2023-05-09T06:04:00.692Z,18.02
2023-05-09T06:06:33.618Z,18.11
2023-05-09T06:09:00.811Z,18.09
2023-05-09T06:11:35.716Z,17.79
2023-05-09T06:14:02.263Z,18.07
2023-05-09T06:16:28.902Z,18.03
2023-05-09T06:19:01.328Z,17.66
2023-05-09T06:21:27.927Z,18.04
2023-05-09T06:24:08.331Z,18.08
2023-05-09T06:26:40.971Z,18.02
2023-05-09T06:29:09.020Z,17.97
2023-05-09T06:31:38.798Z,17.97
2023-05-09T06:34:07.891Z,17.96
2023-05-09T06:36:40.258Z,17.98
2023-05-09T06:39:06.866Z,18.01
2023-05-09T06:41:33.458Z,18.06
2023-05-09T06:44:16.122Z,17.78
2023-05-09T06:46:42.720Z,17.77
2023-05-09T06:49:09.352Z,18.22
2023-05-09T06:51:35.983Z,18.33
2023-05-09T06:54:03.364Z,18.38
2023-05-09T06:56:31.781Z,18.45
2023-05-09T06:59:00.445Z,18.68
2023-05-09T07:01:27.953Z,18.74
2023-05-09T07:03:54.563Z,18.80
2023-05-09T07:06:21.466Z,18.92
2023-05-09T07:08:48.226Z,19.16
2023-05-09T07:11:17.066Z,19.18
2023-05-09T07:13:47.069Z,18.89
2023-05-09T07:16:14.182Z,19.10
2023-05-09T07:18:42.233Z,19.19
2023-05-09T07:21:09.636Z,19.42
2023-05-09T07:23:36.389Z,19.51
2023-05-09T07:26:10.308Z,19.67
2023-05-09T07:28:37.036Z,19.60
2023-05-09T07:31:07.426Z,19.20
2023-05-09T07:33:36.286Z,19.62
2023-05-09T07:36:03.841Z,19.69
2023-05-09T07:38:30.485Z,19.64
2023-05-09T07:41:05.735Z,19.61
2023-05-09T07:43:44.031Z,19.38
2023-05-09T07:46:10.834Z,19.58
2023-05-09T07:48:40.894Z,19.34
2023-05-09T07:51:11.235Z,19.72
2023-05-09T07:53:37.747Z,19.87
2023-05-09T07:56:07.780Z,19.85
2023-05-09T07:58:37.660Z,20.01
2023-05-09T08:01:08.321Z,20.18
2023-05-09T08:03:35.177Z,20.41
2023-05-09T08:06:09.002Z,20.38
2023-05-09T08:08:38.965Z,20.53
2023-05-09T08:11:05.747Z,20.58
2023-05-09T08:13:34.010Z,20.64
2023-05-09T08:16:01.346Z,20.82
2023-05-09T08:18:29.213Z,20.79
2023-05-09T08:20:55.858Z,20.76
2023-05-09T08:23:22.620Z,20.98
2023-05-09T08:25:52.542Z,20.75
2023-05-09T08:28:19.091Z,20.90
2023-05-09T08:30:45.637Z,20.92
2023-05-09T08:33:12.427Z,20.88
2023-05-09T08:35:39.000Z,20.98
2023-05-09T08:38:05.819Z,20.90
2023-05-09T08:40:35.816Z,20.93
2023-05-09T08:43:03.301Z,21.00
2023-05-09T08:45:32.912Z,21.05
2023-05-09T08:48:02.713Z,21.04
2023-05-09T08:50:29.584Z,21.18
2023-05-09T08:52:56.554Z,21.18
2023-05-09T08:55:27.516Z,21.19
2023-05-09T08:57:54.589Z,21.18
2023-05-09T09:00:21.384Z,21.11
2023-05-09T09:02:49.380Z,21.48
2023-05-09T09:05:39.534Z,21.42
2023-05-09T09:08:11.877Z,21.48
2023-05-09T09:10:42.497Z,21.46
2023-05-09T09:13:16.309Z,21.08
2023-05-09T09:15:47.165Z,21.72
2023-05-09T09:18:21.001Z,21.60
2023-05-09T09:20:58.090Z,21.48
2023-05-09T09:23:31.477Z,21.29
2023-05-09T09:26:00.028Z,21.48
2023-05-09T09:28:28.124Z,21.55
2023-05-09T09:30:55.504Z,21.54
2023-05-09T09:33:23.012Z,21.76
2023-05-09T09:35:51.336Z,21.55
2023-05-09T09:38:19.633Z,21.71
2023-05-09T09:40:49.986Z,21.49
2023-05-09T09:43:19.796Z,21.55
2023-05-09T09:45:50.726Z,21.53
2023-05-09T09:48:19.532Z,21.40
2023-05-09T09:50:51.662Z,21.40
2023-05-09T09:53:20.088Z,21.33
2023-05-09T09:55:55.409Z,21.48
2023-05-09T09:58:22.241Z,21.25
2023-05-09T10:01:04.011Z,21.17
2023-05-09T10:03:37.713Z,21.25
2023-05-09T10:06:04.494Z,21.29
2023-05-09T10:37:35.811Z,20.95
2023-05-09T10:40:04.213Z,21.37
2023-05-09T10:42:31.416Z,21.01
2023-05-09T10:45:02.039Z,21.23
2023-05-09T10:47:29.771Z,21.19
2023-05-09T10:49:57.989Z,21.10
2023-05-09T10:52:25.672Z,21.19
2023-05-09T10:55:04.468Z,21.25
2023-05-09T10:57:32.102Z,21.50
2023-05-09T11:00:01.834Z,21.39
2023-05-09T11:02:34.233Z,21.72
2023-05-09T11:05:14.294Z,21.64
2023-05-09T11:07:41.319Z,21.77
2023-05-09T11:10:22.152Z,21.90
2023-05-09T11:13:00.965Z,21.94
2023-05-09T11:15:30.272Z,21.96
2023-05-09T11:18:15.325Z,22.10
2023-05-09T11:20:51.615Z,22.45
2023-05-09T11:23:21.906Z,22.64
2023-05-09T11:25:49.806Z,22.63
2023-05-09T11:28:26.286Z,22.63
2023-05-09T11:30:54.783Z,22.54
2023-05-09T11:33:27.303Z,22.53
2023-05-09T11:36:14.020Z,22.35
2023-05-09T11:38:55.036Z,22.42
2023-05-09T11:41:38.367Z,22.11
2023-05-09T11:44:36.676Z,22.29
2023-05-09T11:47:11.243Z,22.33
2023-05-09T11:49:39.318Z,22.52
2023-05-09T11:52:13.045Z,22.66
2023-05-09T11:54:42.819Z,22.96
2023-05-09T11:59:43.707Z,23.14
2023-05-09T12:02:11.730Z,23.14
2023-05-09T12:04:39.537Z,22.88
2023-05-09T12:07:06.845Z,23.17
2023-05-09T12:09:34.553Z,23.42
2023-05-09T12:12:01.674Z,23.32
2023-05-09T12:14:28.858Z,23.49
2023-05-09T12:19:42.401Z,23.59
2023-05-09T12:22:10.140Z,23.91
2023-05-09T12:24:47.584Z,23.75
2023-05-09T12:27:23.927Z,23.59
2023-05-09T12:29:51.121Z,23.89
2023-05-09T12:32:18.953Z,23.69
2023-05-09T12:34:51.631Z,23.83
2023-05-09T12:37:21.479Z,24.14
2023-05-09T12:40:07.624Z,23.88
2023-05-09T12:42:38.082Z,23.94
2023-05-09T12:45:16.173Z,24.32
2023-05-09T12:47:43.163Z,24.49
2023-05-09T12:50:12.406Z,24.77
2023-05-09T12:52:50.679Z,24.94
2023-05-09T12:55:25.686Z,25.05
2023-05-09T12:58:07.301Z,25.29
2023-05-09T13:00:44.108Z,25.19
2023-05-09T13:03:39.410Z,25.48
2023-05-09T13:06:12.798Z,25.40
2023-05-09T13:08:40.519Z,25.21
2023-05-09T13:13:44.939Z,25.02
2023-05-09T13:16:14.104Z,25.26
2023-05-09T13:18:43.818Z,25.56
2023-05-09T13:21:10.448Z,25.54
2023-05-09T13:23:37.107Z,25.78
2023-05-09T13:26:03.675Z,25.86
2023-05-09T13:28:30.515Z,25.75
2023-05-09T13:31:05.693Z,25.53
2023-05-09T13:33:32.371Z,25.90
2023-05-09T13:35:59.069Z,25.76
2023-05-09T13:38:40.335Z,25.29
2023-05-09T13:41:07.469Z,25.32
2023-05-09T13:43:34.750Z,25.09
2023-05-09T13:46:09.704Z,24.72
2023-05-09T13:48:39.965Z,24.58
2023-05-09T13:51:14.656Z,24.62
2023-05-09T13:53:48.470Z,24.24
2023-05-09T13:56:21.134Z,24.01
2023-05-09T13:58:47.804Z,23.71
2023-05-09T14:01:24.303Z,23.44
2023-05-09T14:03:54.769Z,23.22
2023-05-09T14:06:31.775Z,23.32
2023-05-09T14:09:00.505Z,23.36
2023-05-09T14:11:27.997Z,23.07
2023-05-09T14:13:54.909Z,23.01
2023-05-09T14:16:22.187Z,23.22
2023-05-09T14:18:49.011Z,23.36
2023-05-09T14:21:16.140Z,23.19
2023-05-09T14:23:43.358Z,23.23
2023-05-09T14:26:10.192Z,23.32
2023-05-09T14:28:46.885Z,23.36
2023-05-09T14:31:13.758Z,23.34
2023-05-09T14:33:44.549Z,23.19
2023-05-09T14:36:11.918Z,22.91
2023-05-09T14:38:46.311Z,22.81
2023-05-09T14:41:16.627Z,22.72
2023-05-09T14:43:43.381Z,22.79
2023-05-09T14:46:12.652Z,22.79
2023-05-09T14:48:47.293Z,22.56
2023-05-09T14:51:15.648Z,22.17
2023-05-09T14:53:49.481Z,22.63
2023-05-09T14:56:17.972Z,22.30
2023-05-09T14:58:44.600Z,22.74
2023-05-09T15:01:11.289Z,22.72
2023-05-09T15:03:39.437Z,22.66
2023-05-09T15:06:06.143Z,22.71
2023-05-09T15:08:40.035Z,22.71
2023-05-09T15:11:13.340Z,22.75
2023-05-09T15:13:43.675Z,22.53
2023-05-09T15:16:10.482Z,22.55
2023-05-09T15:18:43.716Z,22.61
2023-05-09T15:21:14.641Z,22.69
2023-05-09T15:23:50.145Z,22.42
2023-05-09T15:26:23.233Z,22.90
2023-05-09T15:28:54.763Z,22.92
2023-05-09T15:31:27.498Z,22.94
2023-05-09T15:33:57.276Z,22.50
2023-05-09T15:36:23.921Z,22.71
2023-05-09T15:38:50.512Z,22.70
2023-05-09T15:41:17.469Z,22.62
2023-05-09T15:43:52.845Z,22.36
2023-05-09T15:46:22.814Z,22.75
2023-05-09T15:48:58.579Z,22.57
2023-05-09T15:51:34.273Z,22.70
2023-05-09T15:54:01.658Z,22.59
2023-05-09T15:56:34.872Z,22.70
2023-05-09T15:59:03.986Z,22.58
2023-05-09T16:01:35.172Z,22.77
2023-05-09T16:04:05.482Z,22.67
2023-05-09T16:06:40.397Z,22.21
2023-05-09T16:09:18.363Z,22.15
2023-05-09T16:11:46.949Z,22.45
2023-05-09T16:14:17.884Z,22.16
2023-05-09T16:16:44.716Z,22.31
2023-05-09T16:19:14.583Z,22.24
2023-05-09T16:21:41.908Z,22.33
2023-05-09T16:24:08.581Z,22.26
2023-05-09T16:26:44.732Z,22.25
2023-05-09T16:29:12.948Z,22.30
2023-05-09T16:31:39.661Z,22.21
2023-05-09T16:34:06.460Z,22.01
2023-05-09T16:36:34.010Z,22.14
2023-05-09T16:39:05.234Z,22.10
2023-05-09T16:41:35.257Z,22.13
2023-05-09T16:44:02.148Z,22.11
2023-05-09T16:46:34.829Z,21.67
2023-05-09T16:49:02.684Z,22.03
2023-05-09T16:51:31.647Z,22.09
2023-05-09T16:54:01.687Z,22.02
2023-05-09T16:56:28.231Z,21.95
2023-05-09T16:59:03.677Z,22.05
2023-05-09T17:01:31.936Z,22.03
2023-05-09T17:04:06.682Z,21.97
2023-05-09T17:06:37.072Z,21.84
2023-05-09T17:09:04.040Z,21.89
2023-05-09T17:11:37.750Z,21.84
2023-05-09T17:14:05.814Z,21.91
2023-05-09T17:16:32.666Z,21.80
2023-05-09T17:19:05.863Z,21.58
2023-05-09T17:21:32.982Z,21.83
2023-05-09T17:23:59.834Z,21.51
2023-05-09T17:26:26.901Z,21.73
2023-05-09T17:28:53.417Z,21.59
2023-05-09T17:31:22.874Z,21.38
2023-05-09T17:33:55.342Z,21.68
2023-05-09T17:36:32.320Z,21.74
2023-05-09T17:39:06.818Z,21.29
2023-05-09T17:41:39.985Z,21.47
2023-05-09T17:44:08.910Z,21.63
2023-05-09T17:46:47.046Z,21.62
2023-05-09T17:49:19.691Z,21.69
2023-05-09T17:51:59.358Z,21.56
2023-05-09T17:54:38.749Z,21.64
2023-05-09T17:57:09.725Z,21.61
2023-05-09T17:59:46.210Z,21.13
2023-05-09T18:02:14.718Z,21.35
2023-05-09T18:04:41.454Z,21.35
2023-05-09T18:07:16.704Z,21.34
2023-05-09T18:09:51.996Z,21.40
2023-05-09T18:12:31.114Z,21.37
2023-05-09T18:15:01.610Z,21.57
2023-05-09T18:17:41.296Z,20.91
2023-05-09T18:20:15.806Z,20.99
2023-05-09T18:22:51.623Z,21.46
2023-05-09T18:25:32.601Z,21.14
2023-05-09T18:28:14.433Z,21.04
2023-05-09T18:30:59.183Z,21.47
2023-05-09T18:33:29.164Z,21.19
2023-05-09T18:35:57.038Z,21.42
2023-05-09T18:38:34.915Z,21.24
2023-05-09T18:41:16.465Z,21.05
2023-05-09T18:43:47.637Z,21.28
2023-05-09T18:46:32.350Z,21.44
2023-05-09T18:49:03.677Z,21.19
2023-05-09T18:51:34.549Z,21.19
2023-05-09T18:54:02.811Z,21.30
2023-05-09T18:56:45.568Z,21.24
2023-05-09T18:59:22.069Z,21.33
2023-05-09T19:01:48.666Z,21.22
2023-05-09T19:04:17.423Z,21.32
2023-05-09T19:06:56.565Z,20.90
2023-05-09T19:09:24.099Z,21.26
2023-05-09T19:12:00.459Z,21.30
2023-05-09T19:14:44.830Z,21.00
2023-05-09T19:17:22.712Z,21.12
2023-05-09T19:20:00.935Z,21.09
2023-05-09T19:22:38.181Z,21.06
2023-05-09T19:25:14.575Z,20.99
2023-05-09T19:27:51.461Z,20.58
2023-05-09T19:30:29.257Z,21.04
2023-05-09T19:33:08.243Z,20.80
2023-05-09T19:35:42.628Z,20.88
2023-05-09T19:38:11.164Z,21.03
2023-05-09T19:40:39.287Z,21.01
2023-05-09T19:43:16.359Z,20.91
2023-05-09T19:45:49.108Z,21.01
2023-05-09T19:48:28.663Z,21.05
2023-05-09T19:51:00.161Z,21.11
2023-05-09T19:53:40.293Z,20.98
2023-05-09T19:56:08.737Z,21.04
2023-05-09T19:58:51.971Z,20.91
2023-05-09T20:01:22.087Z,20.85
2023-05-09T20:03:59.406Z,20.85
2023-05-09T20:06:27.658Z,20.78
2023-05-09T20:08:55.015Z,20.37
2023-05-09T20:11:23.856Z,20.70
2023-05-09T20:13:50.968Z,20.79
2023-05-09T20:16:21.683Z,20.69
2023-05-09T20:18:52.736Z,20.33
2023-05-09T20:21:19.907Z,20.76
2023-05-09T20:23:51.123Z,20.74
2023-05-09T20:26:20.154Z,20.78
2023-05-09T20:28:46.863Z,20.69
2023-05-09T20:31:17.867Z,20.66
2023-05-09T20:33:44.758Z,20.63
2023-05-09T20:36:13.285Z,20.67
2023-05-09T20:38:39.752Z,20.85
2023-05-09T20:41:07.360Z,20.77
2023-05-09T20:43:41.763Z,20.45
2023-05-09T20:46:10.413Z,20.70
2023-05-09T20:48:41.256Z,20.79
2023-05-09T20:51:12.019Z,20.87
2023-05-09T20:53:38.663Z,20.92
2023-05-09T20:56:11.469Z,20.84
2023-05-09T20:58:43.308Z,20.69
2023-05-09T21:01:14.043Z,20.68
2023-05-09T21:03:40.935Z,20.80
2023-05-09T21:06:08.530Z,20.68
2023-05-09T21:08:37.151Z,20.55
2023-05-09T21:11:10.296Z,20.55
2023-05-09T21:13:37.312Z,20.49
2023-05-09T21:16:09.436Z,20.57
2023-05-09T21:18:36.550Z,20.57
2023-05-09T21:21:14.620Z,20.09
2023-05-09T21:23:41.464Z,20.48
2023-05-09T21:26:09.508Z,20.54
2023-05-09T21:28:38.054Z,20.43
2023-05-09T21:31:09.735Z,20.27
2023-05-09T21:33:43.341Z,20.24
2023-05-09T21:36:21.918Z,20.41
2023-05-09T21:38:53.385Z,20.11
2023-05-09T21:41:23.696Z,20.38
2023-05-09T21:43:58.956Z,20.30
2023-05-09T21:46:27.951Z,20.32
2023-05-09T21:49:02.791Z,20.31
2023-05-09T21:51:34.162Z,20.26
2023-05-09T21:54:01.841Z,20.27
2023-05-09T21:56:31.341Z,20.25
2023-05-09T21:59:12.435Z,19.93
2023-05-09T22:01:49.103Z,20.30
2023-05-09T22:04:24.247Z,19.96
2023-05-09T22:07:06.937Z,19.94
2023-05-09T22:09:35.412Z,20.48
2023-05-09T22:12:03.612Z,20.43
2023-05-09T22:14:39.483Z,20.13
2023-05-09T22:17:21.499Z,19.70
2023-05-09T22:19:51.793Z,19.98
2023-05-09T22:22:19.342Z,19.99
2023-05-09T22:24:46.379Z,20.02
2023-05-09T22:27:19.671Z,19.85
2023-05-09T22:29:46.596Z,19.95
2023-05-09T22:32:16.636Z,19.83
2023-05-09T22:34:52.962Z,19.83
2023-05-09T22:37:26.003Z,19.71
2023-05-09T22:39:52.986Z,19.77
2023-05-09T22:42:23.721Z,19.83
2023-05-09T22:44:59.196Z,20.06
2023-05-09T22:47:31.328Z,20.00
2023-05-09T22:50:01.635Z,20.01
2023-05-09T22:52:28.943Z,19.89
2023-05-09T22:55:06.910Z,19.70
2023-05-09T22:57:40.182Z,19.52
2023-05-09T23:00:13.817Z,19.49
2023-05-09T23:02:43.590Z,19.38
2023-05-09T23:05:13.324Z,19.53
2023-05-09T23:07:47.001Z,19.30
2023-05-09T23:10:20.168Z,19.87
2023-05-09T23:12:47.515Z,19.89
2023-05-09T23:15:14.246Z,20.02
2023-05-09T23:17:41.633Z,19.77
2023-05-09T23:20:11.969Z,20.14
2023-05-09T23:22:45.992Z,20.46
2023-05-09T23:25:19.488Z,20.33
2023-05-09T23:27:53.747Z,20.26
2023-05-09T23:30:20.496Z,20.28
2023-05-09T23:32:47.220Z,20.24
2023-05-09T23:35:13.925Z,20.22
2023-05-09T23:37:48.111Z,20.34
2023-05-09T23:40:19.454Z,20.28
2023-05-09T23:42:51.528Z,20.33
2023-05-09T23:45:19.525Z,20.29
2023-05-09T23:47:53.574Z,19.88
2023-05-09T23:50:20.300Z,20.36
2023-05-09T23:52:55.750Z,19.90
2023-05-09T23:55:22.824Z,20.08
2023-05-09T23:57:49.472Z,20.04
